McCool Junction, Nebraska
Current Conditions -  °F | °C
As of 1:15 PM on Tuesday 21 Oct 2014 (Local Time) from KJYR Reporting Station
Light Rain Light Rain  
Wind Chill: 75°   Ceiling: Unl
Heat Index: 75°   Visibility: 10mi
Dew Point: 43°   Wind: 13mph
Humidity: 31%   Direction: 180°S
Pressure: 30.06"   Gusts: 18mph
Location:  40.74°N, 97.6°W
Report Text: KJYR 211815Z AUTO 18011G16KT 10SM -RA CLR 24/06 A3006 RMK AO2
Loading
Personal Weather Stations






























Interactive Weather Map
Tropical Storm Tracking
New forecast layout! Learn more

10-Day Weather Forecast

Advertisements
Track Severe Weather on mobile